Terminal Aerodrome Forecast
Issued by NWS

Home | Current Version | Previous Version | Text Only | Print | Product List | Glossary On
Versions: 1 2 3 4 5 6 7 8 9 10 11 12 13 14
000
FTUS46 KSEW 292300
TAFBLI
TAF
KBLI 292321Z 3000/3024 17007KT P6SM SCT250
     FM300400 18010KT P6SM BKN250
     FM301400 18009KT P6SM FEW012 BKN250
     FM301800 18010KT P6SM SCT250=

USA.gov is the U.S. government's official web portal to all federal, state and local government web resources and services.